<?xml version="1.0" encoding="UTF-8" standalone="no" ?>
<gpx xmlns="http://www.topografix.com/GPX/1/1" xmlns:xsi="http://www.w3.org/2001/XMLSchema-instance" xsi:schemaLocation="http://www.topografix.com/GPX/1/1 http://www.topografix.com/GPX/1/1/gpx.xsd" version="1.1" creator="VisuGPX - https://www.visugpx.com">
  <metadata>
    <name>C.A.P à Valras-Plage (34) - Bis</name>
    <desc><![CDATA[Toute petite boucle à Valras-Plage du 23/07/2014. J\'étais parti pour faire un 10kms, j\'ai du écourter à cause de la grosse chaleur étoufante qui reignait malgré l\'heure matinale.]]></desc>
  </metadata>
  <trk>
    <name><![CDATA[ACTIVE LOG 001]]></name>
    <trkseg>
      <trkpt lat="43.24626" lon="3.29329">
        <ele>1412.7946777</ele>
        <time>2014-07-23T05:40:15Z</time>
      </trkpt>
      <trkpt lat="43.24629" lon="3.29334">
        <ele>1410.3913574</ele>
        <time>2014-07-23T05:40:23Z</time>
      </trkpt>
      <trkpt lat="43.24638" lon="3.29354">
        <ele>1412.7946777</ele>
        <time>2014-07-23T05:40:30Z</time>
      </trkpt>
      <trkpt lat="43.24645" lon="3.29366">
        <ele>1411.8334961</ele>
        <time>2014-07-23T05:40:34Z</time>
      </trkpt>
      <trkpt lat="43.24654" lon="3.29371">
        <ele>1410.3913574</ele>
        <time>2014-07-23T05:40:38Z</time>
      </trkpt>
      <trkpt lat="43.24661" lon="3.29394">
        <ele>1411.8334961</ele>
        <time>2014-07-23T05:40:43Z</time>
      </trkpt>
      <trkpt lat="43.24676" lon="3.29413">
        <ele>1412.7946777</ele>
        <time>2014-07-23T05:40:55Z</time>
      </trkpt>
      <trkpt lat="43.24693" lon="3.2945">
        <ele>1411.8334961</ele>
        <time>2014-07-23T05:41:07Z</time>
      </trkpt>
      <trkpt lat="43.247" lon="3.29465">
        <ele>1412.3139648</ele>
        <time>2014-07-23T05:41:14Z</time>
      </trkpt>
      <trkpt lat="43.24705" lon="3.29472">
        <ele>1412.3139648</ele>
        <time>2014-07-23T05:41:18Z</time>
      </trkpt>
      <trkpt lat="43.24723" lon="3.29515">
        <ele>1413.2753906</ele>
        <time>2014-07-23T05:41:32Z</time>
      </trkpt>
      <trkpt lat="43.24729" lon="3.29528">
        <ele>1412.3139648</ele>
        <time>2014-07-23T05:41:36Z</time>
      </trkpt>
      <trkpt lat="43.2473" lon="3.29534">
        <ele>1413.7558594</ele>
        <time>2014-07-23T05:41:38Z</time>
      </trkpt>
      <trkpt lat="43.24735" lon="3.29533">
        <ele>1413.7558594</ele>
        <time>2014-07-23T05:41:42Z</time>
      </trkpt>
      <trkpt lat="43.24741" lon="3.29539">
        <ele>1411.3527832</ele>
        <time>2014-07-23T05:41:46Z</time>
      </trkpt>
      <trkpt lat="43.24734" lon="3.29553">
        <ele>1414.2365723</ele>
        <time>2014-07-23T05:41:52Z</time>
      </trkpt>
      <trkpt lat="43.24721" lon="3.29563">
        <ele>1409.4301758</ele>
        <time>2014-07-23T05:41:58Z</time>
      </trkpt>
      <trkpt lat="43.24714" lon="3.29571">
        <ele>1414.2365723</ele>
        <time>2014-07-23T05:42:02Z</time>
      </trkpt>
      <trkpt lat="43.24698" lon="3.29585">
        <ele>1414.2365723</ele>
        <time>2014-07-23T05:42:12Z</time>
      </trkpt>
      <trkpt lat="43.2469" lon="3.29588">
        <ele>1413.7558594</ele>
        <time>2014-07-23T05:42:15Z</time>
      </trkpt>
      <trkpt lat="43.24682" lon="3.29579">
        <ele>1412.3139648</ele>
        <time>2014-07-23T05:42:20Z</time>
      </trkpt>
      <trkpt lat="43.24663" lon="3.29545">
        <ele>1412.3139648</ele>
        <time>2014-07-23T05:42:34Z</time>
      </trkpt>
      <trkpt lat="43.24661" lon="3.29542">
        <ele>1416.1591797</ele>
        <time>2014-07-23T05:42:35Z</time>
      </trkpt>
      <trkpt lat="43.2466" lon="3.29539">
        <ele>1411.8334961</ele>
        <time>2014-07-23T05:42:36Z</time>
      </trkpt>
      <trkpt lat="43.24654" lon="3.29522">
        <ele>1415.6787109</ele>
        <time>2014-07-23T05:42:43Z</time>
      </trkpt>
      <trkpt lat="43.24645" lon="3.29506">
        <ele>1411.8334961</ele>
        <time>2014-07-23T05:42:49Z</time>
      </trkpt>
      <trkpt lat="43.24643" lon="3.29503">
        <ele>1411.8334961</ele>
        <time>2014-07-23T05:42:50Z</time>
      </trkpt>
      <trkpt lat="43.24633" lon="3.29484">
        <ele>1408.46875</ele>
        <time>2014-07-23T05:42:58Z</time>
      </trkpt>
      <trkpt lat="43.24633" lon="3.29481">
        <ele>1412.7946777</ele>
        <time>2014-07-23T05:42:59Z</time>
      </trkpt>
      <trkpt lat="43.24625" lon="3.2947">
        <ele>1407.0268555</ele>
        <time>2014-07-23T05:43:03Z</time>
      </trkpt>
      <trkpt lat="43.24624" lon="3.29468">
        <ele>1412.3139648</ele>
        <time>2014-07-23T05:43:04Z</time>
      </trkpt>
      <trkpt lat="43.24607" lon="3.29434">
        <ele>1411.8334961</ele>
        <time>2014-07-23T05:43:17Z</time>
      </trkpt>
      <trkpt lat="43.24589" lon="3.29399">
        <ele>1412.3139648</ele>
        <time>2014-07-23T05:43:30Z</time>
      </trkpt>
      <trkpt lat="43.24586" lon="3.29395">
        <ele>1407.9882813</ele>
        <time>2014-07-23T05:43:32Z</time>
      </trkpt>
      <trkpt lat="43.24586" lon="3.29387">
        <ele>1413.2753906</ele>
        <time>2014-07-23T05:43:35Z</time>
      </trkpt>
      <trkpt lat="43.24582" lon="3.29378">
        <ele>1416.6398926</ele>
        <time>2014-07-23T05:43:38Z</time>
      </trkpt>
      <trkpt lat="43.2458" lon="3.29376">
        <ele>1412.3139648</ele>
        <time>2014-07-23T05:43:39Z</time>
      </trkpt>
      <trkpt lat="43.24572" lon="3.29364">
        <ele>1411.8334961</ele>
        <time>2014-07-23T05:43:44Z</time>
      </trkpt>
      <trkpt lat="43.24566" lon="3.29346">
        <ele>1412.3139648</ele>
        <time>2014-07-23T05:43:50Z</time>
      </trkpt>
      <trkpt lat="43.2456" lon="3.29335">
        <ele>1407.9882813</ele>
        <time>2014-07-23T05:43:54Z</time>
      </trkpt>
      <trkpt lat="43.24559" lon="3.29332">
        <ele>1411.3527832</ele>
        <time>2014-07-23T05:43:55Z</time>
      </trkpt>
      <trkpt lat="43.24558" lon="3.2933">
        <ele>1415.6787109</ele>
        <time>2014-07-23T05:43:56Z</time>
      </trkpt>
      <trkpt lat="43.24556" lon="3.29327">
        <ele>1412.7946777</ele>
        <time>2014-07-23T05:43:57Z</time>
      </trkpt>
      <trkpt lat="43.24553" lon="3.29322">
        <ele>1416.1591797</ele>
        <time>2014-07-23T05:43:59Z</time>
      </trkpt>
      <trkpt lat="43.24551" lon="3.2932">
        <ele>1411.8334961</ele>
        <time>2014-07-23T05:44:00Z</time>
      </trkpt>
      <trkpt lat="43.24547" lon="3.29312">
        <ele>1408.9494629</ele>
        <time>2014-07-23T05:44:03Z</time>
      </trkpt>
      <trkpt lat="43.24547" lon="3.29309">
        <ele>1411.3527832</ele>
        <time>2014-07-23T05:44:04Z</time>
      </trkpt>
      <trkpt lat="43.24543" lon="3.29304">
        <ele>1412.7946777</ele>
        <time>2014-07-23T05:44:06Z</time>
      </trkpt>
      <trkpt lat="43.24538" lon="3.29292">
        <ele>1409.4301758</ele>
        <time>2014-07-23T05:44:10Z</time>
      </trkpt>
      <trkpt lat="43.2453" lon="3.29278">
        <ele>1413.7558594</ele>
        <time>2014-07-23T05:44:16Z</time>
      </trkpt>
      <trkpt lat="43.24522" lon="3.29262">
        <ele>1410.3913574</ele>
        <time>2014-07-23T05:44:22Z</time>
      </trkpt>
      <trkpt lat="43.24521" lon="3.29259">
        <ele>1411.3527832</ele>
        <time>2014-07-23T05:44:23Z</time>
      </trkpt>
      <trkpt lat="43.24512" lon="3.29242">
        <ele>1409.9106445</ele>
        <time>2014-07-23T05:44:30Z</time>
      </trkpt>
      <trkpt lat="43.24509" lon="3.29236">
        <ele>1413.2753906</ele>
        <time>2014-07-23T05:44:33Z</time>
      </trkpt>
      <trkpt lat="43.24509" lon="3.29233">
        <ele>1407.9882813</ele>
        <time>2014-07-23T05:44:34Z</time>
      </trkpt>
      <trkpt lat="43.24508" lon="3.29229">
        <ele>1412.7946777</ele>
        <time>2014-07-23T05:44:35Z</time>
      </trkpt>
      <trkpt lat="43.24499" lon="3.29211">
        <ele>1409.4301758</ele>
        <time>2014-07-23T05:44:41Z</time>
      </trkpt>
      <trkpt lat="43.24498" lon="3.29209">
        <ele>1413.2753906</ele>
        <time>2014-07-23T05:44:42Z</time>
      </trkpt>
      <trkpt lat="43.24478" lon="3.29174">
        <ele>1408.9494629</ele>
        <time>2014-07-23T05:44:55Z</time>
      </trkpt>
      <trkpt lat="43.24476" lon="3.29172">
        <ele>1415.197998</ele>
        <time>2014-07-23T05:44:56Z</time>
      </trkpt>
      <trkpt lat="43.24473" lon="3.29164">
        <ele>1411.3527832</ele>
        <time>2014-07-23T05:44:59Z</time>
      </trkpt>
      <trkpt lat="43.24457" lon="3.29133">
        <ele>1414.7172852</ele>
        <time>2014-07-23T05:45:11Z</time>
      </trkpt>
      <trkpt lat="43.24452" lon="3.29121">
        <ele>1410.8720703</ele>
        <time>2014-07-23T05:45:15Z</time>
      </trkpt>
      <trkpt lat="43.24451" lon="3.29119">
        <ele>1414.2365723</ele>
        <time>2014-07-23T05:45:16Z</time>
      </trkpt>
      <trkpt lat="43.24448" lon="3.29113">
        <ele>1410.8720703</ele>
        <time>2014-07-23T05:45:18Z</time>
      </trkpt>
      <trkpt lat="43.24447" lon="3.29111">
        <ele>1415.6787109</ele>
        <time>2014-07-23T05:45:19Z</time>
      </trkpt>
      <trkpt lat="43.24445" lon="3.29108">
        <ele>1420.4853516</ele>
        <time>2014-07-23T05:45:20Z</time>
      </trkpt>
      <trkpt lat="43.24444" lon="3.29105">
        <ele>1412.3139648</ele>
        <time>2014-07-23T05:45:21Z</time>
      </trkpt>
      <trkpt lat="43.24442" lon="3.29102">
        <ele>1412.7946777</ele>
        <time>2014-07-23T05:45:22Z</time>
      </trkpt>
      <trkpt lat="43.24427" lon="3.29073">
        <ele>1413.7558594</ele>
        <time>2014-07-23T05:45:33Z</time>
      </trkpt>
      <trkpt lat="43.24426" lon="3.29067">
        <ele>1412.3139648</ele>
        <time>2014-07-23T05:45:35Z</time>
      </trkpt>
      <trkpt lat="43.24405" lon="3.29025">
        <ele>1409.4301758</ele>
        <time>2014-07-23T05:45:50Z</time>
      </trkpt>
      <trkpt lat="43.24404" lon="3.29023">
        <ele>1412.7946777</ele>
        <time>2014-07-23T05:45:51Z</time>
      </trkpt>
      <trkpt lat="43.24395" lon="3.29004">
        <ele>1411.8334961</ele>
        <time>2014-07-23T05:45:58Z</time>
      </trkpt>
      <trkpt lat="43.24388" lon="3.28986">
        <ele>1415.6787109</ele>
        <time>2014-07-23T05:46:04Z</time>
      </trkpt>
      <trkpt lat="43.24387" lon="3.28984">
        <ele>1410.8720703</ele>
        <time>2014-07-23T05:46:05Z</time>
      </trkpt>
      <trkpt lat="43.2438" lon="3.28966">
        <ele>1414.7172852</ele>
        <time>2014-07-23T05:46:11Z</time>
      </trkpt>
      <trkpt lat="43.24371" lon="3.28942">
        <ele>1410.8720703</ele>
        <time>2014-07-23T05:46:19Z</time>
      </trkpt>
      <trkpt lat="43.24367" lon="3.28935">
        <ele>1417.6010742</ele>
        <time>2014-07-23T05:46:22Z</time>
      </trkpt>
      <trkpt lat="43.24366" lon="3.28931">
        <ele>1414.2365723</ele>
        <time>2014-07-23T05:46:23Z</time>
      </trkpt>
      <trkpt lat="43.24359" lon="3.28917">
        <ele>1413.7558594</ele>
        <time>2014-07-23T05:46:29Z</time>
      </trkpt>
      <trkpt lat="43.24358" lon="3.28915">
        <ele>1417.1206055</ele>
        <time>2014-07-23T05:46:30Z</time>
      </trkpt>
      <trkpt lat="43.24355" lon="3.2891">
        <ele>1413.2753906</ele>
        <time>2014-07-23T05:46:32Z</time>
      </trkpt>
      <trkpt lat="43.24347" lon="3.28896">
        <ele>1410.3913574</ele>
        <time>2014-07-23T05:46:37Z</time>
      </trkpt>
      <trkpt lat="43.24345" lon="3.28887">
        <ele>1414.2365723</ele>
        <time>2014-07-23T05:46:40Z</time>
      </trkpt>
      <trkpt lat="43.24345" lon="3.28884">
        <ele>1408.9494629</ele>
        <time>2014-07-23T05:46:41Z</time>
      </trkpt>
      <trkpt lat="43.24343" lon="3.2888">
        <ele>1414.7172852</ele>
        <time>2014-07-23T05:46:42Z</time>
      </trkpt>
      <trkpt lat="43.24329" lon="3.28839">
        <ele>1413.2753906</ele>
        <time>2014-07-23T05:46:57Z</time>
      </trkpt>
      <trkpt lat="43.24324" lon="3.28825">
        <ele>1417.1206055</ele>
        <time>2014-07-23T05:47:02Z</time>
      </trkpt>
      <trkpt lat="43.24323" lon="3.28822">
        <ele>1412.3139648</ele>
        <time>2014-07-23T05:47:03Z</time>
      </trkpt>
      <trkpt lat="43.24321" lon="3.28813">
        <ele>1415.6787109</ele>
        <time>2014-07-23T05:47:06Z</time>
      </trkpt>
      <trkpt lat="43.2432" lon="3.28809">
        <ele>1412.7946777</ele>
        <time>2014-07-23T05:47:07Z</time>
      </trkpt>
      <trkpt lat="43.24315" lon="3.288">
        <ele>1416.6398926</ele>
        <time>2014-07-23T05:47:11Z</time>
      </trkpt>
      <trkpt lat="43.24313" lon="3.28798">
        <ele>1413.7558594</ele>
        <time>2014-07-23T05:47:12Z</time>
      </trkpt>
      <trkpt lat="43.24312" lon="3.28785">
        <ele>1410.3913574</ele>
        <time>2014-07-23T05:47:16Z</time>
      </trkpt>
      <trkpt lat="43.24309" lon="3.28781">
        <ele>1411.3527832</ele>
        <time>2014-07-23T05:47:17Z</time>
      </trkpt>
      <trkpt lat="43.24308" lon="3.28778">
        <ele>1414.7172852</ele>
        <time>2014-07-23T05:47:18Z</time>
      </trkpt>
      <trkpt lat="43.24307" lon="3.28776">
        <ele>1414.2365723</ele>
        <time>2014-07-23T05:47:19Z</time>
      </trkpt>
      <trkpt lat="43.243" lon="3.28764">
        <ele>1410.3913574</ele>
        <time>2014-07-23T05:47:23Z</time>
      </trkpt>
      <trkpt lat="43.24296" lon="3.28759">
        <ele>1418.5625</ele>
        <time>2014-07-23T05:47:25Z</time>
      </trkpt>
      <trkpt lat="43.24295" lon="3.28757">
        <ele>1414.7172852</ele>
        <time>2014-07-23T05:47:26Z</time>
      </trkpt>
      <trkpt lat="43.24291" lon="3.28746">
        <ele>1411.8334961</ele>
        <time>2014-07-23T05:47:30Z</time>
      </trkpt>
      <trkpt lat="43.2429" lon="3.28743">
        <ele>1414.7172852</ele>
        <time>2014-07-23T05:47:31Z</time>
      </trkpt>
      <trkpt lat="43.24286" lon="3.28731">
        <ele>1414.2365723</ele>
        <time>2014-07-23T05:47:35Z</time>
      </trkpt>
      <trkpt lat="43.24269" lon="3.28694">
        <ele>1414.7172852</ele>
        <time>2014-07-23T05:47:48Z</time>
      </trkpt>
      <trkpt lat="43.24259" lon="3.28671">
        <ele>1418.0817871</ele>
        <time>2014-07-23T05:47:56Z</time>
      </trkpt>
      <trkpt lat="43.24259" lon="3.28669">
        <ele>1411.3527832</ele>
        <time>2014-07-23T05:47:57Z</time>
      </trkpt>
      <trkpt lat="43.24257" lon="3.28666">
        <ele>1413.2753906</ele>
        <time>2014-07-23T05:47:58Z</time>
      </trkpt>
      <trkpt lat="43.24246" lon="3.28639">
        <ele>1415.197998</ele>
        <time>2014-07-23T05:48:08Z</time>
      </trkpt>
      <trkpt lat="43.24241" lon="3.28627">
        <ele>1411.3527832</ele>
        <time>2014-07-23T05:48:12Z</time>
      </trkpt>
      <trkpt lat="43.24231" lon="3.28598">
        <ele>1414.7172852</ele>
        <time>2014-07-23T05:48:22Z</time>
      </trkpt>
      <trkpt lat="43.24228" lon="3.28588">
        <ele>1412.7946777</ele>
        <time>2014-07-23T05:48:25Z</time>
      </trkpt>
      <trkpt lat="43.24223" lon="3.28577">
        <ele>1409.9106445</ele>
        <time>2014-07-23T05:48:29Z</time>
      </trkpt>
      <trkpt lat="43.24223" lon="3.28574">
        <ele>1413.7558594</ele>
        <time>2014-07-23T05:48:30Z</time>
      </trkpt>
      <trkpt lat="43.24209" lon="3.2854">
        <ele>1414.2365723</ele>
        <time>2014-07-23T05:48:42Z</time>
      </trkpt>
      <trkpt lat="43.24207" lon="3.28537">
        <ele>1409.9106445</ele>
        <time>2014-07-23T05:48:43Z</time>
      </trkpt>
      <trkpt lat="43.24206" lon="3.28535">
        <ele>1415.197998</ele>
        <time>2014-07-23T05:48:44Z</time>
      </trkpt>
      <trkpt lat="43.24193" lon="3.28505">
        <ele>1409.9106445</ele>
        <time>2014-07-23T05:48:55Z</time>
      </trkpt>
      <trkpt lat="43.24181" lon="3.28488">
        <ele>1413.2753906</ele>
        <time>2014-07-23T05:49:01Z</time>
      </trkpt>
      <trkpt lat="43.2418" lon="3.28485">
        <ele>1417.1206055</ele>
        <time>2014-07-23T05:49:02Z</time>
      </trkpt>
      <trkpt lat="43.24179" lon="3.28482">
        <ele>1416.1591797</ele>
        <time>2014-07-23T05:49:03Z</time>
      </trkpt>
      <trkpt lat="43.24176" lon="3.28476">
        <ele>1413.2753906</ele>
        <time>2014-07-23T05:49:05Z</time>
      </trkpt>
      <trkpt lat="43.24172" lon="3.28462">
        <ele>1408.46875</ele>
        <time>2014-07-23T05:49:10Z</time>
      </trkpt>
      <trkpt lat="43.24171" lon="3.28459">
        <ele>1410.8720703</ele>
        <time>2014-07-23T05:49:11Z</time>
      </trkpt>
      <trkpt lat="43.2417" lon="3.28454">
        <ele>1413.7558594</ele>
        <time>2014-07-23T05:49:13Z</time>
      </trkpt>
      <trkpt lat="43.24157" lon="3.28418">
        <ele>1411.3527832</ele>
        <time>2014-07-23T05:49:25Z</time>
      </trkpt>
      <trkpt lat="43.24156" lon="3.28416">
        <ele>1415.6787109</ele>
        <time>2014-07-23T05:49:26Z</time>
      </trkpt>
      <trkpt lat="43.24154" lon="3.28413">
        <ele>1413.2753906</ele>
        <time>2014-07-23T05:49:27Z</time>
      </trkpt>
      <trkpt lat="43.24149" lon="3.28401">
        <ele>1409.9106445</ele>
        <time>2014-07-23T05:49:32Z</time>
      </trkpt>
      <trkpt lat="43.24148" lon="3.28399">
        <ele>1413.7558594</ele>
        <time>2014-07-23T05:49:33Z</time>
      </trkpt>
      <trkpt lat="43.24138" lon="3.2836">
        <ele>1411.8334961</ele>
        <time>2014-07-23T05:49:47Z</time>
      </trkpt>
      <trkpt lat="43.24119" lon="3.28327">
        <ele>1411.3527832</ele>
        <time>2014-07-23T05:50:00Z</time>
      </trkpt>
      <trkpt lat="43.24117" lon="3.28315">
        <ele>1415.197998</ele>
        <time>2014-07-23T05:50:03Z</time>
      </trkpt>
      <trkpt lat="43.24114" lon="3.28306">
        <ele>1411.8334961</ele>
        <time>2014-07-23T05:50:06Z</time>
      </trkpt>
      <trkpt lat="43.24108" lon="3.28293">
        <ele>1415.6787109</ele>
        <time>2014-07-23T05:50:11Z</time>
      </trkpt>
      <trkpt lat="43.24104" lon="3.28285">
        <ele>1410.3913574</ele>
        <time>2014-07-23T05:50:14Z</time>
      </trkpt>
      <trkpt lat="43.24101" lon="3.28279">
        <ele>1413.7558594</ele>
        <time>2014-07-23T05:50:16Z</time>
      </trkpt>
      <trkpt lat="43.24081" lon="3.2824">
        <ele>1414.7172852</ele>
        <time>2014-07-23T05:50:30Z</time>
      </trkpt>
      <trkpt lat="43.24078" lon="3.28225">
        <ele>1409.9106445</ele>
        <time>2014-07-23T05:50:35Z</time>
      </trkpt>
      <trkpt lat="43.24073" lon="3.2821">
        <ele>1415.197998</ele>
        <time>2014-07-23T05:50:40Z</time>
      </trkpt>
      <trkpt lat="43.24068" lon="3.28201">
        <ele>1409.4301758</ele>
        <time>2014-07-23T05:50:43Z</time>
      </trkpt>
      <trkpt lat="43.24066" lon="3.28198">
        <ele>1411.3527832</ele>
        <time>2014-07-23T05:50:44Z</time>
      </trkpt>
      <trkpt lat="43.24065" lon="3.28195">
        <ele>1415.197998</ele>
        <time>2014-07-23T05:50:45Z</time>
      </trkpt>
      <trkpt lat="43.24064" lon="3.28192">
        <ele>1411.8334961</ele>
        <time>2014-07-23T05:50:46Z</time>
      </trkpt>
      <trkpt lat="43.24048" lon="3.28152">
        <ele>1418.0817871</ele>
        <time>2014-07-23T05:51:00Z</time>
      </trkpt>
      <trkpt lat="43.24048" lon="3.28149">
        <ele>1413.7558594</ele>
        <time>2014-07-23T05:51:01Z</time>
      </trkpt>
      <trkpt lat="43.24051" lon="3.28145">
        <ele>1412.3139648</ele>
        <time>2014-07-23T05:51:17Z</time>
      </trkpt>
      <trkpt lat="43.24055" lon="3.2814">
        <ele>1412.7946777</ele>
        <time>2014-07-23T05:51:22Z</time>
      </trkpt>
      <trkpt lat="43.24072" lon="3.28126">
        <ele>1412.3139648</ele>
        <time>2014-07-23T05:51:36Z</time>
      </trkpt>
      <trkpt lat="43.24075" lon="3.28129">
        <ele>1415.6787109</ele>
        <time>2014-07-23T05:51:39Z</time>
      </trkpt>
      <trkpt lat="43.24083" lon="3.28135">
        <ele>1412.3139648</ele>
        <time>2014-07-23T05:51:44Z</time>
      </trkpt>
      <trkpt lat="43.24093" lon="3.2814">
        <ele>1416.6398926</ele>
        <time>2014-07-23T05:51:49Z</time>
      </trkpt>
      <trkpt lat="43.24096" lon="3.28141">
        <ele>1411.3527832</ele>
        <time>2014-07-23T05:51:50Z</time>
      </trkpt>
      <trkpt lat="43.24099" lon="3.28142">
        <ele>1416.6398926</ele>
        <time>2014-07-23T05:51:51Z</time>
      </trkpt>
      <trkpt lat="43.24102" lon="3.28143">
        <ele>1408.9494629</ele>
        <time>2014-07-23T05:51:52Z</time>
      </trkpt>
      <trkpt lat="43.24105" lon="3.28146">
        <ele>1411.8334961</ele>
        <time>2014-07-23T05:51:53Z</time>
      </trkpt>
      <trkpt lat="43.24108" lon="3.2815">
        <ele>1405.104248</ele>
        <time>2014-07-23T05:51:54Z</time>
      </trkpt>
      <trkpt lat="43.24113" lon="3.28158">
        <ele>1411.8334961</ele>
        <time>2014-07-23T05:51:55Z</time>
      </trkpt>
      <trkpt lat="43.2412" lon="3.2817">
        <ele>1412.7946777</ele>
        <time>2014-07-23T05:51:57Z</time>
      </trkpt>
      <trkpt lat="43.24125" lon="3.28182">
        <ele>1407.5075684</ele>
        <time>2014-07-23T05:52:01Z</time>
      </trkpt>
      <trkpt lat="43.24127" lon="3.28185">
        <ele>1412.3139648</ele>
        <time>2014-07-23T05:52:02Z</time>
      </trkpt>
      <trkpt lat="43.24126" lon="3.28187">
        <ele>1407.9882813</ele>
        <time>2014-07-23T05:52:03Z</time>
      </trkpt>
      <trkpt lat="43.24125" lon="3.28188">
        <ele>1413.2753906</ele>
        <time>2014-07-23T05:52:04Z</time>
      </trkpt>
      <trkpt lat="43.24135" lon="3.28217">
        <ele>1413.2753906</ele>
        <time>2014-07-23T05:52:13Z</time>
      </trkpt>
      <trkpt lat="43.24135" lon="3.28242">
        <ele>1413.7558594</ele>
        <time>2014-07-23T05:52:22Z</time>
      </trkpt>
      <trkpt lat="43.24137" lon="3.28247">
        <ele>1410.8720703</ele>
        <time>2014-07-23T05:52:24Z</time>
      </trkpt>
      <trkpt lat="43.24147" lon="3.28254">
        <ele>1412.7946777</ele>
        <time>2014-07-23T05:52:30Z</time>
      </trkpt>
      <trkpt lat="43.24159" lon="3.28262">
        <ele>1412.7946777</ele>
        <time>2014-07-23T05:52:36Z</time>
      </trkpt>
      <trkpt lat="43.24165" lon="3.28269">
        <ele>1411.8334961</ele>
        <time>2014-07-23T05:52:39Z</time>
      </trkpt>
      <trkpt lat="43.24168" lon="3.28277">
        <ele>1413.7558594</ele>
        <time>2014-07-23T05:52:42Z</time>
      </trkpt>
      <trkpt lat="43.24171" lon="3.28279">
        <ele>1413.2753906</ele>
        <time>2014-07-23T05:52:43Z</time>
      </trkpt>
      <trkpt lat="43.24187" lon="3.28312">
        <ele>1413.7558594</ele>
        <time>2014-07-23T05:52:53Z</time>
      </trkpt>
      <trkpt lat="43.24189" lon="3.28314">
        <ele>1413.2753906</ele>
        <time>2014-07-23T05:52:55Z</time>
      </trkpt>
      <trkpt lat="43.24192" lon="3.28322">
        <ele>1411.8334961</ele>
        <time>2014-07-23T05:52:57Z</time>
      </trkpt>
      <trkpt lat="43.24201" lon="3.28336">
        <ele>1412.3139648</ele>
        <time>2014-07-23T05:53:03Z</time>
      </trkpt>
      <trkpt lat="43.24223" lon="3.28371">
        <ele>1408.9494629</ele>
        <time>2014-07-23T05:53:16Z</time>
      </trkpt>
      <trkpt lat="43.24224" lon="3.28375">
        <ele>1412.7946777</ele>
        <time>2014-07-23T05:53:17Z</time>
      </trkpt>
      <trkpt lat="43.24239" lon="3.28418">
        <ele>1413.7558594</ele>
        <time>2014-07-23T05:53:31Z</time>
      </trkpt>
      <trkpt lat="43.24243" lon="3.28424">
        <ele>1412.3139648</ele>
        <time>2014-07-23T05:53:33Z</time>
      </trkpt>
      <trkpt lat="43.24245" lon="3.28438">
        <ele>1407.0268555</ele>
        <time>2014-07-23T05:53:38Z</time>
      </trkpt>
      <trkpt lat="43.24246" lon="3.2844">
        <ele>1410.8720703</ele>
        <time>2014-07-23T05:53:39Z</time>
      </trkpt>
      <trkpt lat="43.24259" lon="3.2847">
        <ele>1412.7946777</ele>
        <time>2014-07-23T05:53:50Z</time>
      </trkpt>
      <trkpt lat="43.24262" lon="3.28481">
        <ele>1411.3527832</ele>
        <time>2014-07-23T05:53:54Z</time>
      </trkpt>
      <trkpt lat="43.24271" lon="3.28497">
        <ele>1412.7946777</ele>
        <time>2014-07-23T05:53:59Z</time>
      </trkpt>
      <trkpt lat="43.24279" lon="3.28518">
        <ele>1410.8720703</ele>
        <time>2014-07-23T05:54:07Z</time>
      </trkpt>
      <trkpt lat="43.24282" lon="3.28524">
        <ele>1415.197998</ele>
        <time>2014-07-23T05:54:10Z</time>
      </trkpt>
      <trkpt lat="43.24283" lon="3.28527">
        <ele>1410.3913574</ele>
        <time>2014-07-23T05:54:11Z</time>
      </trkpt>
      <trkpt lat="43.2429" lon="3.28542">
        <ele>1413.7558594</ele>
        <time>2014-07-23T05:54:17Z</time>
      </trkpt>
      <trkpt lat="43.24305" lon="3.28564">
        <ele>1408.9494629</ele>
        <time>2014-07-23T05:54:25Z</time>
      </trkpt>
      <trkpt lat="43.24306" lon="3.28573">
        <ele>1414.7172852</ele>
        <time>2014-07-23T05:54:27Z</time>
      </trkpt>
      <trkpt lat="43.24308" lon="3.28576">
        <ele>1412.3139648</ele>
        <time>2014-07-23T05:54:28Z</time>
      </trkpt>
      <trkpt lat="43.24311" lon="3.28586">
        <ele>1407.5075684</ele>
        <time>2014-07-23T05:54:32Z</time>
      </trkpt>
      <trkpt lat="43.24312" lon="3.28595">
        <ele>1412.3139648</ele>
        <time>2014-07-23T05:54:35Z</time>
      </trkpt>
      <trkpt lat="43.24324" lon="3.28628">
        <ele>1411.8334961</ele>
        <time>2014-07-23T05:54:47Z</time>
      </trkpt>
      <trkpt lat="43.24327" lon="3.28636">
        <ele>1409.9106445</ele>
        <time>2014-07-23T05:54:50Z</time>
      </trkpt>
      <trkpt lat="43.24329" lon="3.28643">
        <ele>1413.7558594</ele>
        <time>2014-07-23T05:54:53Z</time>
      </trkpt>
      <trkpt lat="43.24333" lon="3.28658">
        <ele>1412.7946777</ele>
        <time>2014-07-23T05:54:57Z</time>
      </trkpt>
      <trkpt lat="43.2434" lon="3.28664">
        <ele>1407.9882813</ele>
        <time>2014-07-23T05:55:01Z</time>
      </trkpt>
      <trkpt lat="43.24341" lon="3.28666">
        <ele>1411.3527832</ele>
        <time>2014-07-23T05:55:02Z</time>
      </trkpt>
      <trkpt lat="43.24342" lon="3.28667">
        <ele>1415.197998</ele>
        <time>2014-07-23T05:55:03Z</time>
      </trkpt>
      <trkpt lat="43.24343" lon="3.28668">
        <ele>1412.3139648</ele>
        <time>2014-07-23T05:55:04Z</time>
      </trkpt>
      <trkpt lat="43.24362" lon="3.28702">
        <ele>1409.9106445</ele>
        <time>2014-07-23T05:55:17Z</time>
      </trkpt>
      <trkpt lat="43.24368" lon="3.28712">
        <ele>1412.7946777</ele>
        <time>2014-07-23T05:55:22Z</time>
      </trkpt>
      <trkpt lat="43.24371" lon="3.28716">
        <ele>1412.3139648</ele>
        <time>2014-07-23T05:55:24Z</time>
      </trkpt>
      <trkpt lat="43.24374" lon="3.28741">
        <ele>1408.9494629</ele>
        <time>2014-07-23T05:55:30Z</time>
      </trkpt>
      <trkpt lat="43.24375" lon="3.28751">
        <ele>1412.7946777</ele>
        <time>2014-07-23T05:55:35Z</time>
      </trkpt>
      <trkpt lat="43.24382" lon="3.28755">
        <ele>1407.5075684</ele>
        <time>2014-07-23T05:55:39Z</time>
      </trkpt>
      <trkpt lat="43.24384" lon="3.28757">
        <ele>1412.3139648</ele>
        <time>2014-07-23T05:55:40Z</time>
      </trkpt>
      <trkpt lat="43.24385" lon="3.28761">
        <ele>1411.8334961</ele>
        <time>2014-07-23T05:55:42Z</time>
      </trkpt>
      <trkpt lat="43.24391" lon="3.28765">
        <ele>1414.7172852</ele>
        <time>2014-07-23T05:55:45Z</time>
      </trkpt>
      <trkpt lat="43.24393" lon="3.28768">
        <ele>1411.8334961</ele>
        <time>2014-07-23T05:55:46Z</time>
      </trkpt>
      <trkpt lat="43.24403" lon="3.28781">
        <ele>1407.9882813</ele>
        <time>2014-07-23T05:55:50Z</time>
      </trkpt>
      <trkpt lat="43.24404" lon="3.28784">
        <ele>1411.3527832</ele>
        <time>2014-07-23T05:55:51Z</time>
      </trkpt>
      <trkpt lat="43.24405" lon="3.28787">
        <ele>1410.3913574</ele>
        <time>2014-07-23T05:55:52Z</time>
      </trkpt>
      <trkpt lat="43.24417" lon="3.28809">
        <ele>1411.3527832</ele>
        <time>2014-07-23T05:56:02Z</time>
      </trkpt>
      <trkpt lat="43.24421" lon="3.28822">
        <ele>1413.7558594</ele>
        <time>2014-07-23T05:56:07Z</time>
      </trkpt>
      <trkpt lat="43.24422" lon="3.28825">
        <ele>1407.0268555</ele>
        <time>2014-07-23T05:56:08Z</time>
      </trkpt>
      <trkpt lat="43.24423" lon="3.28828">
        <ele>1412.3139648</ele>
        <time>2014-07-23T05:56:09Z</time>
      </trkpt>
      <trkpt lat="43.24424" lon="3.28833">
        <ele>1411.8334961</ele>
        <time>2014-07-23T05:56:11Z</time>
      </trkpt>
      <trkpt lat="43.24427" lon="3.28853">
        <ele>1407.9882813</ele>
        <time>2014-07-23T05:56:17Z</time>
      </trkpt>
      <trkpt lat="43.24426" lon="3.2886">
        <ele>1412.7946777</ele>
        <time>2014-07-23T05:56:18Z</time>
      </trkpt>
      <trkpt lat="43.24426" lon="3.28864">
        <ele>1407.9882813</ele>
        <time>2014-07-23T05:56:19Z</time>
      </trkpt>
      <trkpt lat="43.24427" lon="3.28869">
        <ele>1411.3527832</ele>
        <time>2014-07-23T05:56:20Z</time>
      </trkpt>
      <trkpt lat="43.24432" lon="3.28881">
        <ele>1415.6787109</ele>
        <time>2014-07-23T05:56:23Z</time>
      </trkpt>
      <trkpt lat="43.24434" lon="3.28886">
        <ele>1408.9494629</ele>
        <time>2014-07-23T05:56:24Z</time>
      </trkpt>
      <trkpt lat="43.24435" lon="3.2889">
        <ele>1413.2753906</ele>
        <time>2014-07-23T05:56:25Z</time>
      </trkpt>
      <trkpt lat="43.24434" lon="3.28893">
        <ele>1411.3527832</ele>
        <time>2014-07-23T05:56:26Z</time>
      </trkpt>
      <trkpt lat="43.24434" lon="3.289">
        <ele>1411.3527832</ele>
        <time>2014-07-23T05:56:28Z</time>
      </trkpt>
      <trkpt lat="43.24438" lon="3.28906">
        <ele>1413.2753906</ele>
        <time>2014-07-23T05:56:30Z</time>
      </trkpt>
      <trkpt lat="43.24442" lon="3.28914">
        <ele>1409.4301758</ele>
        <time>2014-07-23T05:56:33Z</time>
      </trkpt>
      <trkpt lat="43.24445" lon="3.2893">
        <ele>1413.7558594</ele>
        <time>2014-07-23T05:56:38Z</time>
      </trkpt>
      <trkpt lat="43.24445" lon="3.28932">
        <ele>1413.7558594</ele>
        <time>2014-07-23T05:56:39Z</time>
      </trkpt>
      <trkpt lat="43.24445" lon="3.28938">
        <ele>1409.9106445</ele>
        <time>2014-07-23T05:56:41Z</time>
      </trkpt>
      <trkpt lat="43.24446" lon="3.28941">
        <ele>1411.8334961</ele>
        <time>2014-07-23T05:56:42Z</time>
      </trkpt>
      <trkpt lat="43.24447" lon="3.28951">
        <ele>1412.7946777</ele>
        <time>2014-07-23T05:56:45Z</time>
      </trkpt>
      <trkpt lat="43.24458" lon="3.28976">
        <ele>1413.2753906</ele>
        <time>2014-07-23T05:56:54Z</time>
      </trkpt>
      <trkpt lat="43.24461" lon="3.28989">
        <ele>1416.6398926</ele>
        <time>2014-07-23T05:56:59Z</time>
      </trkpt>
      <trkpt lat="43.24458" lon="3.28994">
        <ele>1410.8720703</ele>
        <time>2014-07-23T05:57:00Z</time>
      </trkpt>
      <trkpt lat="43.24459" lon="3.28996">
        <ele>1412.7946777</ele>
        <time>2014-07-23T05:57:01Z</time>
      </trkpt>
      <trkpt lat="43.24463" lon="3.29005">
        <ele>1412.7946777</ele>
        <time>2014-07-23T05:57:05Z</time>
      </trkpt>
      <trkpt lat="43.24465" lon="3.29008">
        <ele>1414.2365723</ele>
        <time>2014-07-23T05:57:06Z</time>
      </trkpt>
      <trkpt lat="43.24468" lon="3.29028">
        <ele>1412.3139648</ele>
        <time>2014-07-23T05:57:13Z</time>
      </trkpt>
      <trkpt lat="43.24472" lon="3.29033">
        <ele>1410.8720703</ele>
        <time>2014-07-23T05:57:16Z</time>
      </trkpt>
      <trkpt lat="43.24481" lon="3.29031">
        <ele>1405.104248</ele>
        <time>2014-07-23T05:57:17Z</time>
      </trkpt>
      <trkpt lat="43.24484" lon="3.29031">
        <ele>1411.8334961</ele>
        <time>2014-07-23T05:57:18Z</time>
      </trkpt>
      <trkpt lat="43.24492" lon="3.29044">
        <ele>1407.9882813</ele>
        <time>2014-07-23T05:57:24Z</time>
      </trkpt>
      <trkpt lat="43.24496" lon="3.29052">
        <ele>1411.3527832</ele>
        <time>2014-07-23T05:57:27Z</time>
      </trkpt>
      <trkpt lat="43.24504" lon="3.29059">
        <ele>1411.8334961</ele>
        <time>2014-07-23T05:57:31Z</time>
      </trkpt>
      <trkpt lat="43.24514" lon="3.29072">
        <ele>1412.3139648</ele>
        <time>2014-07-23T05:57:35Z</time>
      </trkpt>
      <trkpt lat="43.24518" lon="3.29073">
        <ele>1411.8334961</ele>
        <time>2014-07-23T05:57:36Z</time>
      </trkpt>
      <trkpt lat="43.24519" lon="3.29079">
        <ele>1407.0268555</ele>
        <time>2014-07-23T05:57:39Z</time>
      </trkpt>
      <trkpt lat="43.2452" lon="3.29081">
        <ele>1412.3139648</ele>
        <time>2014-07-23T05:57:40Z</time>
      </trkpt>
      <trkpt lat="43.2452" lon="3.29091">
        <ele>1415.197998</ele>
        <time>2014-07-23T05:57:45Z</time>
      </trkpt>
      <trkpt lat="43.24519" lon="3.29093">
        <ele>1411.8334961</ele>
        <time>2014-07-23T05:57:46Z</time>
      </trkpt>
      <trkpt lat="43.24532" lon="3.29098">
        <ele>1408.46875</ele>
        <time>2014-07-23T05:57:50Z</time>
      </trkpt>
      <trkpt lat="43.24548" lon="3.29129">
        <ele>1415.197998</ele>
        <time>2014-07-23T05:57:58Z</time>
      </trkpt>
      <trkpt lat="43.2455" lon="3.29133">
        <ele>1410.8720703</ele>
        <time>2014-07-23T05:58:00Z</time>
      </trkpt>
      <trkpt lat="43.24553" lon="3.29136">
        <ele>1414.2365723</ele>
        <time>2014-07-23T05:58:03Z</time>
      </trkpt>
      <trkpt lat="43.24557" lon="3.29141">
        <ele>1412.3139648</ele>
        <time>2014-07-23T05:58:06Z</time>
      </trkpt>
      <trkpt lat="43.2456" lon="3.29143">
        <ele>1407.5075684</ele>
        <time>2014-07-23T05:58:07Z</time>
      </trkpt>
      <trkpt lat="43.24562" lon="3.29145">
        <ele>1410.8720703</ele>
        <time>2014-07-23T05:58:08Z</time>
      </trkpt>
      <trkpt lat="43.24564" lon="3.29147">
        <ele>1412.7946777</ele>
        <time>2014-07-23T05:58:09Z</time>
      </trkpt>
      <trkpt lat="43.24564" lon="3.29151">
        <ele>1411.3527832</ele>
        <time>2014-07-23T05:58:11Z</time>
      </trkpt>
      <trkpt lat="43.24567" lon="3.2916">
        <ele>1413.2753906</ele>
        <time>2014-07-23T05:58:15Z</time>
      </trkpt>
      <trkpt lat="43.24577" lon="3.29163">
        <ele>1407.9882813</ele>
        <time>2014-07-23T05:58:18Z</time>
      </trkpt>
      <trkpt lat="43.24577" lon="3.29165">
        <ele>1410.3913574</ele>
        <time>2014-07-23T05:58:19Z</time>
      </trkpt>
      <trkpt lat="43.24581" lon="3.29177">
        <ele>1413.7558594</ele>
        <time>2014-07-23T05:58:24Z</time>
      </trkpt>
      <trkpt lat="43.24584" lon="3.29192">
        <ele>1412.7946777</ele>
        <time>2014-07-23T05:58:30Z</time>
      </trkpt>
      <trkpt lat="43.24587" lon="3.29191">
        <ele>1408.9494629</ele>
        <time>2014-07-23T05:58:33Z</time>
      </trkpt>
      <trkpt lat="43.24588" lon="3.29193">
        <ele>1412.3139648</ele>
        <time>2014-07-23T05:58:34Z</time>
      </trkpt>
      <trkpt lat="43.24588" lon="3.29194">
        <ele>1407.0268555</ele>
        <time>2014-07-23T05:58:35Z</time>
      </trkpt>
      <trkpt lat="43.24589" lon="3.29196">
        <ele>1410.8720703</ele>
        <time>2014-07-23T05:58:36Z</time>
      </trkpt>
      <trkpt lat="43.24592" lon="3.292">
        <ele>1414.2365723</ele>
        <time>2014-07-23T05:58:37Z</time>
      </trkpt>
      <trkpt lat="43.24595" lon="3.29204">
        <ele>1410.8720703</ele>
        <time>2014-07-23T05:58:38Z</time>
      </trkpt>
      <trkpt lat="43.24603" lon="3.2922">
        <ele>1414.2365723</ele>
        <time>2014-07-23T05:58:48Z</time>
      </trkpt>
      <trkpt lat="43.24604" lon="3.29221">
        <ele>1408.9494629</ele>
        <time>2014-07-23T05:58:49Z</time>
      </trkpt>
      <trkpt lat="43.24615" lon="3.29238">
        <ele>1412.3139648</ele>
        <time>2014-07-23T05:58:54Z</time>
      </trkpt>
      <trkpt lat="43.24627" lon="3.29247">
        <ele>1406.0654297</ele>
        <time>2014-07-23T05:58:58Z</time>
      </trkpt>
      <trkpt lat="43.2463" lon="3.2925">
        <ele>1411.8334961</ele>
        <time>2014-07-23T05:58:59Z</time>
      </trkpt>
      <trkpt lat="43.24631" lon="3.29251">
        <ele>1407.5075684</ele>
        <time>2014-07-23T05:59:00Z</time>
      </trkpt>
      <trkpt lat="43.24635" lon="3.29257">
        <ele>1408.46875</ele>
        <time>2014-07-23T05:59:02Z</time>
      </trkpt>
      <trkpt lat="43.24636" lon="3.29259">
        <ele>1411.8334961</ele>
        <time>2014-07-23T05:59:03Z</time>
      </trkpt>
      <trkpt lat="43.24637" lon="3.2926">
        <ele>1415.197998</ele>
        <time>2014-07-23T05:59:04Z</time>
      </trkpt>
      <trkpt lat="43.24642" lon="3.2926">
        <ele>1411.8334961</ele>
        <time>2014-07-23T05:59:05Z</time>
      </trkpt>
      <trkpt lat="43.24646" lon="3.29281">
        <ele>1411.8334961</ele>
        <time>2014-07-23T05:59:22Z</time>
      </trkpt>
      <trkpt lat="43.24664" lon="3.29341">
        <ele>1408.46875</ele>
        <time>2014-07-23T06:01:16Z</time>
      </trkpt>
      <trkpt lat="43.24669" lon="3.29352">
        <ele>1412.7946777</ele>
        <time>2014-07-23T06:01:17Z</time>
      </trkpt>
      <trkpt lat="43.24669" lon="3.29356">
        <ele>1408.9494629</ele>
        <time>2014-07-23T06:01:18Z</time>
      </trkpt>
      <trkpt lat="43.24669" lon="3.29362">
        <ele>1413.7558594</ele>
        <time>2014-07-23T06:01:20Z</time>
      </trkpt>
      <trkpt lat="43.24672" lon="3.29394">
        <ele>1412.3139648</ele>
        <time>2014-07-23T06:01:31Z</time>
      </trkpt>
      <trkpt lat="43.24698" lon="3.29411">
        <ele>1408.46875</ele>
        <time>2014-07-23T06:01:42Z</time>
      </trkpt>
      <trkpt lat="43.24699" lon="3.29415">
        <ele>1411.3527832</ele>
        <time>2014-07-23T06:01:44Z</time>
      </trkpt>
      <trkpt lat="43.24701" lon="3.29418">
        <ele>1411.3527832</ele>
        <time>2014-07-23T06:01:45Z</time>
      </trkpt>
      <trkpt lat="43.24704" lon="3.29445">
        <ele>1412.3139648</ele>
        <time>2014-07-23T06:01:55Z</time>
      </trkpt>
      <trkpt lat="43.2472" lon="3.29456">
        <ele>1412.7946777</ele>
        <time>2014-07-23T06:02:03Z</time>
      </trkpt>
      <trkpt lat="43.24725" lon="3.29468">
        <ele>1411.8334961</ele>
        <time>2014-07-23T06:02:07Z</time>
      </trkpt>
      <trkpt lat="43.2475" lon="3.29527">
        <ele>1412.3139648</ele>
        <time>2014-07-23T06:02:21Z</time>
      </trkpt>
      <trkpt lat="43.24749" lon="3.29541">
        <ele>1412.7946777</ele>
        <time>2014-07-23T06:02:32Z</time>
      </trkpt>
      <trkpt lat="43.24749" lon="3.29545">
        <ele>1411.3527832</ele>
        <time>2014-07-23T06:02:34Z</time>
      </trkpt>
      <trkpt lat="43.24752" lon="3.29553">
        <ele>1412.3139648</ele>
        <time>2014-07-23T06:02:37Z</time>
      </trkpt>
      <trkpt lat="43.24722" lon="3.29575">
        <ele>1413.2753906</ele>
        <time>2014-07-23T06:02:51Z</time>
      </trkpt>
      <trkpt lat="43.24699" lon="3.29587">
        <ele>1411.8334961</ele>
        <time>2014-07-23T06:03:02Z</time>
      </trkpt>
      <trkpt lat="43.24695" lon="3.29584">
        <ele>1414.7172852</ele>
        <time>2014-07-23T06:03:04Z</time>
      </trkpt>
      <trkpt lat="43.24689" lon="3.29573">
        <ele>1411.3527832</ele>
        <time>2014-07-23T06:03:09Z</time>
      </trkpt>
      <trkpt lat="43.24686" lon="3.29565">
        <ele>1415.197998</ele>
        <time>2014-07-23T06:03:13Z</time>
      </trkpt>
      <trkpt lat="43.24681" lon="3.29552">
        <ele>1410.3913574</ele>
        <time>2014-07-23T06:03:18Z</time>
      </trkpt>
      <trkpt lat="43.24677" lon="3.29541">
        <ele>1414.2365723</ele>
        <time>2014-07-23T06:03:22Z</time>
      </trkpt>
      <trkpt lat="43.24671" lon="3.29528">
        <ele>1410.8720703</ele>
        <time>2014-07-23T06:03:27Z</time>
      </trkpt>
      <trkpt lat="43.24668" lon="3.29517">
        <ele>1414.7172852</ele>
        <time>2014-07-23T06:03:31Z</time>
      </trkpt>
      <trkpt lat="43.24666" lon="3.29515">
        <ele>1413.7558594</ele>
        <time>2014-07-23T06:03:32Z</time>
      </trkpt>
      <trkpt lat="43.24648" lon="3.29478">
        <ele>1412.3139648</ele>
        <time>2014-07-23T06:03:47Z</time>
      </trkpt>
      <trkpt lat="43.24625" lon="3.2945">
        <ele>1413.7558594</ele>
        <time>2014-07-23T06:04:00Z</time>
      </trkpt>
      <trkpt lat="43.24611" lon="3.29415">
        <ele>1412.7946777</ele>
        <time>2014-07-23T06:04:13Z</time>
      </trkpt>
      <trkpt lat="43.24606" lon="3.29402">
        <ele>1414.2365723</ele>
        <time>2014-07-23T06:04:18Z</time>
      </trkpt>
      <trkpt lat="43.24586" lon="3.29366">
        <ele>1413.2753906</ele>
        <time>2014-07-23T06:04:31Z</time>
      </trkpt>
      <trkpt lat="43.24574" lon="3.29347">
        <ele>1409.9106445</ele>
        <time>2014-07-23T06:04:39Z</time>
      </trkpt>
      <trkpt lat="43.24572" lon="3.29344">
        <ele>1412.7946777</ele>
        <time>2014-07-23T06:04:40Z</time>
      </trkpt>
      <trkpt lat="43.24558" lon="3.29321">
        <ele>1408.9494629</ele>
        <time>2014-07-23T06:04:48Z</time>
      </trkpt>
      <trkpt lat="43.24556" lon="3.29319">
        <ele>1412.3139648</ele>
        <time>2014-07-23T06:04:49Z</time>
      </trkpt>
      <trkpt lat="43.24551" lon="3.29309">
        <ele>1413.7558594</ele>
        <time>2014-07-23T06:04:53Z</time>
      </trkpt>
      <trkpt lat="43.24537" lon="3.2929">
        <ele>1414.2365723</ele>
        <time>2014-07-23T06:05:01Z</time>
      </trkpt>
      <trkpt lat="43.24526" lon="3.29266">
        <ele>1409.9106445</ele>
        <time>2014-07-23T06:05:12Z</time>
      </trkpt>
      <trkpt lat="43.24525" lon="3.29263">
        <ele>1414.7172852</ele>
        <time>2014-07-23T06:05:13Z</time>
      </trkpt>
      <trkpt lat="43.24525" lon="3.29261">
        <ele>1410.3913574</ele>
        <time>2014-07-23T06:05:14Z</time>
      </trkpt>
      <trkpt lat="43.24522" lon="3.29256">
        <ele>1413.7558594</ele>
        <time>2014-07-23T06:05:16Z</time>
      </trkpt>
      <trkpt lat="43.24507" lon="3.29213">
        <ele>1412.3139648</ele>
        <time>2014-07-23T06:05:31Z</time>
      </trkpt>
      <trkpt lat="43.24505" lon="3.2921">
        <ele>1409.4301758</ele>
        <time>2014-07-23T06:05:32Z</time>
      </trkpt>
      <trkpt lat="43.24504" lon="3.29205">
        <ele>1416.1591797</ele>
        <time>2014-07-23T06:05:34Z</time>
      </trkpt>
      <trkpt lat="43.24503" lon="3.29203">
        <ele>1413.2753906</ele>
        <time>2014-07-23T06:05:35Z</time>
      </trkpt>
      <trkpt lat="43.24495" lon="3.29189">
        <ele>1412.3139648</ele>
        <time>2014-07-23T06:05:40Z</time>
      </trkpt>
      <trkpt lat="43.24471" lon="3.29152">
        <ele>1414.7172852</ele>
        <time>2014-07-23T06:05:55Z</time>
      </trkpt>
      <trkpt lat="43.24465" lon="3.29142">
        <ele>1412.3139648</ele>
        <time>2014-07-23T06:05:59Z</time>
      </trkpt>
      <trkpt lat="43.2445" lon="3.29111">
        <ele>1412.7946777</ele>
        <time>2014-07-23T06:06:12Z</time>
      </trkpt>
      <trkpt lat="43.24448" lon="3.29099">
        <ele>1414.2365723</ele>
        <time>2014-07-23T06:06:18Z</time>
      </trkpt>
      <trkpt lat="43.24451" lon="3.29098">
        <ele>1418.0817871</ele>
        <time>2014-07-23T06:06:20Z</time>
      </trkpt>
      <trkpt lat="43.24453" lon="3.29096">
        <ele>1413.7558594</ele>
        <time>2014-07-23T06:06:21Z</time>
      </trkpt>
      <trkpt lat="43.24455" lon="3.29095">
        <ele>1418.0817871</ele>
        <time>2014-07-23T06:06:22Z</time>
      </trkpt>
      <trkpt lat="43.24456" lon="3.29092">
        <ele>1414.2365723</ele>
        <time>2014-07-23T06:06:23Z</time>
      </trkpt>
      <trkpt lat="43.24469" lon="3.29077">
        <ele>1414.2365723</ele>
        <time>2014-07-23T06:06:28Z</time>
      </trkpt>
      <trkpt lat="43.24476" lon="3.29073">
        <ele>1411.8334961</ele>
        <time>2014-07-23T06:06:30Z</time>
      </trkpt>
      <trkpt lat="43.24482" lon="3.29068">
        <ele>1411.8334961</ele>
        <time>2014-07-23T06:06:35Z</time>
      </trkpt>
      <trkpt lat="43.24489" lon="3.29057">
        <ele>1411.8334961</ele>
        <time>2014-07-23T06:06:44Z</time>
      </trkpt>
      <trkpt lat="43.24498" lon="3.29053">
        <ele>1411.3527832</ele>
        <time>2014-07-23T06:06:52Z</time>
      </trkpt>
      <trkpt lat="43.24504" lon="3.29056">
        <ele>1409.9106445</ele>
        <time>2014-07-23T06:06:56Z</time>
      </trkpt>
      <trkpt lat="43.24509" lon="3.29065">
        <ele>1412.3139648</ele>
        <time>2014-07-23T06:06:59Z</time>
      </trkpt>
      <trkpt lat="43.24525" lon="3.2908">
        <ele>1411.8334961</ele>
        <time>2014-07-23T06:07:08Z</time>
      </trkpt>
      <trkpt lat="43.24529" lon="3.2909">
        <ele>1414.7172852</ele>
        <time>2014-07-23T06:07:13Z</time>
      </trkpt>
      <trkpt lat="43.2453" lon="3.29099">
        <ele>1412.3139648</ele>
        <time>2014-07-23T06:07:17Z</time>
      </trkpt>
      <trkpt lat="43.2453" lon="3.29105">
        <ele>1411.3527832</ele>
        <time>2014-07-23T06:07:20Z</time>
      </trkpt>
      <trkpt lat="43.24531" lon="3.29115">
        <ele>1411.3527832</ele>
        <time>2014-07-23T06:07:24Z</time>
      </trkpt>
      <trkpt lat="43.24538" lon="3.29125">
        <ele>1413.7558594</ele>
        <time>2014-07-23T06:07:28Z</time>
      </trkpt>
      <trkpt lat="43.24542" lon="3.29134">
        <ele>1407.9882813</ele>
        <time>2014-07-23T06:07:31Z</time>
      </trkpt>
      <trkpt lat="43.24548" lon="3.29138">
        <ele>1413.2753906</ele>
        <time>2014-07-23T06:07:34Z</time>
      </trkpt>
      <trkpt lat="43.24548" lon="3.29139">
        <ele>1412.3139648</ele>
        <time>2014-07-23T06:07:35Z</time>
      </trkpt>
      <trkpt lat="43.24551" lon="3.29142">
        <ele>1406.0654297</ele>
        <time>2014-07-23T06:07:37Z</time>
      </trkpt>
      <trkpt lat="43.24555" lon="3.29145">
        <ele>1412.7946777</ele>
        <time>2014-07-23T06:07:41Z</time>
      </trkpt>
      <trkpt lat="43.24559" lon="3.29149">
        <ele>1405.5849609</ele>
        <time>2014-07-23T06:07:43Z</time>
      </trkpt>
      <trkpt lat="43.24561" lon="3.2915">
        <ele>1408.9494629</ele>
        <time>2014-07-23T06:07:44Z</time>
      </trkpt>
      <trkpt lat="43.24566" lon="3.29154">
        <ele>1410.8720703</ele>
        <time>2014-07-23T06:07:46Z</time>
      </trkpt>
      <trkpt lat="43.2458" lon="3.29161">
        <ele>1411.3527832</ele>
        <time>2014-07-23T06:07:51Z</time>
      </trkpt>
      <trkpt lat="43.24586" lon="3.2918">
        <ele>1415.197998</ele>
        <time>2014-07-23T06:07:58Z</time>
      </trkpt>
      <trkpt lat="43.24587" lon="3.29181">
        <ele>1411.8334961</ele>
        <time>2014-07-23T06:07:59Z</time>
      </trkpt>
      <trkpt lat="43.24589" lon="3.29192">
        <ele>1406.5461426</ele>
        <time>2014-07-23T06:08:07Z</time>
      </trkpt>
      <trkpt lat="43.24589" lon="3.29208">
        <ele>1411.8334961</ele>
        <time>2014-07-23T06:08:16Z</time>
      </trkpt>
      <trkpt lat="43.24591" lon="3.29213">
        <ele>1412.3139648</ele>
        <time>2014-07-23T06:08:18Z</time>
      </trkpt>
      <trkpt lat="43.24597" lon="3.29219">
        <ele>1410.3913574</ele>
        <time>2014-07-23T06:08:22Z</time>
      </trkpt>
      <trkpt lat="43.24604" lon="3.29244">
        <ele>1411.3527832</ele>
        <time>2014-07-23T06:08:29Z</time>
      </trkpt>
      <trkpt lat="43.24623" lon="3.29259">
        <ele>1413.7558594</ele>
        <time>2014-07-23T06:08:36Z</time>
      </trkpt>
      <trkpt lat="43.24633" lon="3.29262">
        <ele>1413.7558594</ele>
        <time>2014-07-23T06:08:38Z</time>
      </trkpt>
      <trkpt lat="43.24643" lon="3.29263">
        <ele>1410.3913574</ele>
        <time>2014-07-23T06:08:39Z</time>
      </trkpt>
      <trkpt lat="43.24646" lon="3.2927">
        <ele>1411.3527832</ele>
        <time>2014-07-23T06:08:42Z</time>
      </trkpt>
      <trkpt lat="43.24647" lon="3.29281">
        <ele>1409.9106445</ele>
        <time>2014-07-23T06:08:45Z</time>
      </trkpt>
      <trkpt lat="43.24646" lon="3.29292">
        <ele>1414.2365723</ele>
        <time>2014-07-23T06:08:49Z</time>
      </trkpt>
      <trkpt lat="43.24646" lon="3.29308">
        <ele>1414.2365723</ele>
        <time>2014-07-23T06:08:53Z</time>
      </trkpt>
      <trkpt lat="43.24646" lon="3.29315">
        <ele>1413.7558594</ele>
        <time>2014-07-23T06:08:55Z</time>
      </trkpt>
      <trkpt lat="43.24656" lon="3.2932">
        <ele>1411.3527832</ele>
        <time>2014-07-23T06:08:57Z</time>
      </trkpt>
      <trkpt lat="43.24665" lon="3.29354">
        <ele>1407.0268555</ele>
        <time>2014-07-23T06:09:04Z</time>
      </trkpt>
      <trkpt lat="43.24666" lon="3.29381">
        <ele>1409.9106445</ele>
        <time>2014-07-23T06:09:17Z</time>
      </trkpt>
      <trkpt lat="43.24667" lon="3.29383">
        <ele>1413.2753906</ele>
        <time>2014-07-23T06:09:18Z</time>
      </trkpt>
      <trkpt lat="43.24674" lon="3.2939">
        <ele>1411.3527832</ele>
        <time>2014-07-23T06:09:22Z</time>
      </trkpt>
      <trkpt lat="43.24691" lon="3.2941">
        <ele>1411.3527832</ele>
        <time>2014-07-23T06:09:32Z</time>
      </trkpt>
      <trkpt lat="43.24692" lon="3.29411">
        <ele>1411.3527832</ele>
        <time>2014-07-23T06:09:33Z</time>
      </trkpt>
      <trkpt lat="43.24714" lon="3.29432">
        <ele>1412.3139648</ele>
        <time>2014-07-23T06:09:41Z</time>
      </trkpt>
      <trkpt lat="43.24723" lon="3.29452">
        <ele>1411.3527832</ele>
        <time>2014-07-23T06:09:49Z</time>
      </trkpt>
      <trkpt lat="43.24722" lon="3.29456">
        <ele>1414.7172852</ele>
        <time>2014-07-23T06:09:50Z</time>
      </trkpt>
      <trkpt lat="43.24722" lon="3.29458">
        <ele>1407.9882813</ele>
        <time>2014-07-23T06:09:51Z</time>
      </trkpt>
      <trkpt lat="43.24723" lon="3.29461">
        <ele>1411.8334961</ele>
        <time>2014-07-23T06:09:52Z</time>
      </trkpt>
      <trkpt lat="43.24723" lon="3.29468">
        <ele>1408.9494629</ele>
        <time>2014-07-23T06:09:55Z</time>
      </trkpt>
      <trkpt lat="43.24727" lon="3.29478">
        <ele>1413.7558594</ele>
        <time>2014-07-23T06:09:57Z</time>
      </trkpt>
      <trkpt lat="43.24733" lon="3.29489">
        <ele>1412.3139648</ele>
        <time>2014-07-23T06:10:00Z</time>
      </trkpt>
      <trkpt lat="43.24742" lon="3.2952">
        <ele>1411.3527832</ele>
        <time>2014-07-23T06:10:06Z</time>
      </trkpt>
      <trkpt lat="43.24745" lon="3.2953">
        <ele>1418.5625</ele>
        <time>2014-07-23T06:10:10Z</time>
      </trkpt>
      <trkpt lat="43.24743" lon="3.29531">
        <ele>1413.7558594</ele>
        <time>2014-07-23T06:10:11Z</time>
      </trkpt>
      <trkpt lat="43.24744" lon="3.29539">
        <ele>1409.4301758</ele>
        <time>2014-07-23T06:10:15Z</time>
      </trkpt>
      <trkpt lat="43.24745" lon="3.29542">
        <ele>1413.7558594</ele>
        <time>2014-07-23T06:10:16Z</time>
      </trkpt>
      <trkpt lat="43.24746" lon="3.29546">
        <ele>1410.3913574</ele>
        <time>2014-07-23T06:10:17Z</time>
      </trkpt>
      <trkpt lat="43.24746" lon="3.2955">
        <ele>1417.1206055</ele>
        <time>2014-07-23T06:10:19Z</time>
      </trkpt>
      <trkpt lat="43.24745" lon="3.29552">
        <ele>1412.7946777</ele>
        <time>2014-07-23T06:10:20Z</time>
      </trkpt>
      <trkpt lat="43.24744" lon="3.29554">
        <ele>1417.1206055</ele>
        <time>2014-07-23T06:10:21Z</time>
      </trkpt>
      <trkpt lat="43.24744" lon="3.29556">
        <ele>1412.7946777</ele>
        <time>2014-07-23T06:10:22Z</time>
      </trkpt>
      <trkpt lat="43.2474" lon="3.2956">
        <ele>1407.5075684</ele>
        <time>2014-07-23T06:10:24Z</time>
      </trkpt>
      <trkpt lat="43.24738" lon="3.29562">
        <ele>1412.7946777</ele>
        <time>2014-07-23T06:10:25Z</time>
      </trkpt>
      <trkpt lat="43.24736" lon="3.29564">
        <ele>1409.4301758</ele>
        <time>2014-07-23T06:10:26Z</time>
      </trkpt>
      <trkpt lat="43.24733" lon="3.29566">
        <ele>1412.7946777</ele>
        <time>2014-07-23T06:10:27Z</time>
      </trkpt>
      <trkpt lat="43.2473" lon="3.29567">
        <ele>1417.1206055</ele>
        <time>2014-07-23T06:10:28Z</time>
      </trkpt>
      <trkpt lat="43.24727" lon="3.29569">
        <ele>1411.8334961</ele>
        <time>2014-07-23T06:10:29Z</time>
      </trkpt>
      <trkpt lat="43.24724" lon="3.29572">
        <ele>1418.5625</ele>
        <time>2014-07-23T06:10:30Z</time>
      </trkpt>
      <trkpt lat="43.24722" lon="3.29574">
        <ele>1412.3139648</ele>
        <time>2014-07-23T06:10:31Z</time>
      </trkpt>
      <trkpt lat="43.24717" lon="3.29577">
        <ele>1408.9494629</ele>
        <time>2014-07-23T06:10:33Z</time>
      </trkpt>
      <trkpt lat="43.24715" lon="3.29579">
        <ele>1412.3139648</ele>
        <time>2014-07-23T06:10:34Z</time>
      </trkpt>
      <trkpt lat="43.24706" lon="3.29588">
        <ele>1412.3139648</ele>
        <time>2014-07-23T06:10:38Z</time>
      </trkpt>
      <trkpt lat="43.24697" lon="3.29585">
        <ele>1409.9106445</ele>
        <time>2014-07-23T06:10:42Z</time>
      </trkpt>
      <trkpt lat="43.24694" lon="3.29583">
        <ele>1407.5075684</ele>
        <time>2014-07-23T06:10:44Z</time>
      </trkpt>
      <trkpt lat="43.24692" lon="3.29581">
        <ele>1412.7946777</ele>
        <time>2014-07-23T06:10:45Z</time>
      </trkpt>
      <trkpt lat="43.24688" lon="3.29575">
        <ele>1416.1591797</ele>
        <time>2014-07-23T06:10:48Z</time>
      </trkpt>
      <trkpt lat="43.24683" lon="3.29568">
        <ele>1409.9106445</ele>
        <time>2014-07-23T06:10:51Z</time>
      </trkpt>
      <trkpt lat="43.24681" lon="3.29566">
        <ele>1415.6787109</ele>
        <time>2014-07-23T06:10:52Z</time>
      </trkpt>
      <trkpt lat="43.2468" lon="3.29563">
        <ele>1411.3527832</ele>
        <time>2014-07-23T06:10:53Z</time>
      </trkpt>
      <trkpt lat="43.24678" lon="3.29557">
        <ele>1415.197998</ele>
        <time>2014-07-23T06:10:55Z</time>
      </trkpt>
      <trkpt lat="43.24675" lon="3.29549">
        <ele>1411.8334961</ele>
        <time>2014-07-23T06:10:58Z</time>
      </trkpt>
      <trkpt lat="43.24672" lon="3.29544">
        <ele>1415.197998</ele>
        <time>2014-07-23T06:11:00Z</time>
      </trkpt>
      <trkpt lat="43.24667" lon="3.29533">
        <ele>1411.3527832</ele>
        <time>2014-07-23T06:11:05Z</time>
      </trkpt>
      <trkpt lat="43.24665" lon="3.29523">
        <ele>1417.1206055</ele>
        <time>2014-07-23T06:11:09Z</time>
      </trkpt>
      <trkpt lat="43.24664" lon="3.29521">
        <ele>1414.7172852</ele>
        <time>2014-07-23T06:11:10Z</time>
      </trkpt>
      <trkpt lat="43.24662" lon="3.29518">
        <ele>1418.5625</ele>
        <time>2014-07-23T06:11:11Z</time>
      </trkpt>
      <trkpt lat="43.24661" lon="3.29514">
        <ele>1413.2753906</ele>
        <time>2014-07-23T06:11:12Z</time>
      </trkpt>
      <trkpt lat="43.2466" lon="3.29511">
        <ele>1413.2753906</ele>
        <time>2014-07-23T06:11:13Z</time>
      </trkpt>
      <trkpt lat="43.24657" lon="3.29503">
        <ele>1409.4301758</ele>
        <time>2014-07-23T06:11:16Z</time>
      </trkpt>
      <trkpt lat="43.24656" lon="3.29499">
        <ele>1414.7172852</ele>
        <time>2014-07-23T06:11:18Z</time>
      </trkpt>
      <trkpt lat="43.24654" lon="3.29496">
        <ele>1414.7172852</ele>
        <time>2014-07-23T06:11:19Z</time>
      </trkpt>
      <trkpt lat="43.2465" lon="3.2949">
        <ele>1413.7558594</ele>
        <time>2014-07-23T06:11:23Z</time>
      </trkpt>
      <trkpt lat="43.24653" lon="3.2948">
        <ele>1409.9106445</ele>
        <time>2014-07-23T06:11:27Z</time>
      </trkpt>
      <trkpt lat="43.24659" lon="3.29474">
        <ele>1414.2365723</ele>
        <time>2014-07-23T06:11:30Z</time>
      </trkpt>
      <trkpt lat="43.24659" lon="3.29467">
        <ele>1412.3139648</ele>
        <time>2014-07-23T06:11:32Z</time>
      </trkpt>
      <trkpt lat="43.24659" lon="3.29456">
        <ele>1412.3139648</ele>
        <time>2014-07-23T06:11:36Z</time>
      </trkpt>
      <trkpt lat="43.24658" lon="3.29452">
        <ele>1412.7946777</ele>
        <time>2014-07-23T06:11:37Z</time>
      </trkpt>
    </trkseg>
  </trk>
</gpx>